Wetterdaten: Woche 01.08.16 - 07.08.16 (KW31)
Datum Zeit Temp. A. Temp. A. max Feuchte A. Luftdruck Regen Wind Richtung Sonnenschein ET UV Solar Taupunkt Windben
01.08.2016 00:00 14,1 C 14,1 C 95 % 1015,9 hPa 0,0 mm 1,8 km/h (1 Bft) S 0,00 h 0,000 mm 0,0 UV-I 0 W/m 13,4 C 2,9 km/h (1 Bft)
01.08.2016 01:00 14,4 C 14,5 C 94 % 1016,2 hPa 0,0 mm 1,9 km/h (1 Bft) W-SW 0,00 h 0,000 mm 0,0 UV-I 0 W/m 13,4 C 3,6 km/h (1 Bft)
01.08.2016 02:00 14,4 C 14,4 C 93 % 1016,5 hPa 0,0 mm 2,7 km/h (1 Bft) S 0,00 h 0,000 mm 0,0 UV-I 0 W/m 13,3 C 4,8 km/h (1 Bft)
01.08.2016 03:00 14,2 C 14,2 C 93 % 1016,4 hPa 0,0 mm 2,3 km/h (1 Bft) SW 0,00 h 0,000 mm 0,0 UV-I 0 W/m 13,0 C 4,3 km/h (1 Bft)
01.08.2016 04:00 13,9 C 13,9 C 94 % 1016,7 hPa 0,0 mm 0,7 km/h (0 Bft) W-SW 0,00 h 0,000 mm 0,0 UV-I 0 W/m 12,9 C 1,8 km/h (1 Bft)
01.08.2016 05:00 13,7 C 13,7 C 93 % 1016,9 hPa 0,0 mm 0,8 km/h (0 Bft) W-NW 0,00 h 0,000 mm 0,0 UV-I 0 W/m 12,7 C 1,6 km/h (1 Bft)
01.08.2016 06:00 13,3 C 13,4 C 94 % 1017,4 hPa 0,0 mm 0,5 km/h (0 Bft) W-NW 0,00 h 0,000 mm 0,0 UV-I 17 W/m 12,4 C 1,3 km/h (1 Bft)
01.08.2016 07:00 13,6 C 13,6 C 94 % 1017,9 hPa 0,0 mm 1,3 km/h (1 Bft) N 0,00 h 0,000 mm 0,5 UV-I 57 W/m 12,6 C 2,4 km/h (1 Bft)
01.08.2016 08:00 14,0 C 14,0 C 91 % 1018,2 hPa 0,0 mm 0,3 km/h (0 Bft) W 0,00 h 0,025 mm 0,9 UV-I 110 W/m 12,5 C 0,6 km/h (0 Bft)
01.08.2016 09:00 15,0 C 15,0 C 87 % 1018,3 hPa 0,0 mm 2,1 km/h (1 Bft) W-NW 0,48 h 0,051 mm 2,2 UV-I 305 W/m 12,7 C 3,8 km/h (1 Bft)
01.08.2016 10:00 16,0 C 16,0 C 77 % 1018,5 hPa 0,0 mm 2,2 km/h (1 Bft) N-NO 0,58 h 0,178 mm 3,0 UV-I 402 W/m 11,9 C 4,2 km/h (1 Bft)
01.08.2016 11:00 17,1 C 17,1 C 75 % 1018,5 hPa 0,0 mm 3,4 km/h (1 Bft) N-NW 0,78 h 0,229 mm 5,1 UV-I 759 W/m 12,6 C 5,2 km/h (1 Bft)
01.08.2016 12:00 17,5 C 17,6 C 69 % 1018,6 hPa 0,0 mm 3,2 km/h (1 Bft) NW 0,17 h 0,406 mm 4,2 UV-I 437 W/m 11,8 C 5,0 km/h (1 Bft)
01.08.2016 13:00 17,2 C 17,2 C 71 % 1018,7 hPa 0,0 mm 3,6 km/h (1 Bft) N-NW 0,00 h 0,279 mm 2,1 UV-I 220 W/m 11,9 C 5,7 km/h (1 Bft)
01.08.2016 14:00 17,4 C 17,4 C 71 % 1018,9 hPa 0,0 mm 3,0 km/h (1 Bft) NW 0,07 h 0,127 mm 3,0 UV-I 296 W/m 12,0 C 4,8 km/h (1 Bft)
01.08.2016 15:00 17,6 C 17,6 C 70 % 1018,8 hPa 0,0 mm 3,2 km/h (1 Bft) W-NW 0,03 h 0,178 mm 2,9 UV-I 299 W/m 12,0 C 4,9 km/h (1 Bft)
01.08.2016 16:00 18,0 C 18,1 C 69 % 1018,6 hPa 0,0 mm 3,4 km/h (1 Bft) W 0,07 h 0,178 mm 2,4 UV-I 273 W/m 12,2 C 5,6 km/h (1 Bft)
01.08.2016 17:00 18,0 C 18,0 C 68 % 1018,6 hPa 0,0 mm 2,8 km/h (1 Bft) W 0,02 h 0,178 mm 1,3 UV-I 149 W/m 11,9 C 4,6 km/h (1 Bft)
01.08.2016 18:00 17,0 C 17,0 C 76 % 1018,5 hPa 0,0 mm 0,7 km/h (0 Bft) W 0,00 h 0,101 mm 0,7 UV-I 102 W/m 12,6 C 1,9 km/h (1 Bft)
01.08.2016 19:00 16,9 C 17,0 C 77 % 1018,4 hPa 0,0 mm 0,3 km/h (0 Bft) W 0,02 h 0,051 mm 0,5 UV-I 80 W/m 12,8 C 1,2 km/h (1 Bft)
01.08.2016 20:00 15,3 C 15,3 C 84 % 1018,5 hPa 0,0 mm 0,7 km/h (0 Bft) S-SW 0,00 h 0,051 mm 0,0 UV-I 24 W/m 12,6 C 1,6 km/h (1 Bft)
01.08.2016 21:00 12,8 C 12,9 C 91 % 1018,9 hPa 0,0 mm 0,2 km/h (0 Bft) S-SW 0,00 h 0,025 mm 0,0 UV-I 0 W/m 11,4 C 0,9 km/h (0 Bft)
01.08.2016 22:00 12,4 C 12,4 C 91 % 1019,1 hPa 0,0 mm 0,2 km/h (0 Bft) W-SW 0,00 h 0,000 mm 0,0 UV-I 0 W/m 10,9 C 1,0 km/h (0 Bft)
01.08.2016 23:00 12,1 C 12,1 C 90 % 1019,2 hPa 0,0 mm 0,7 km/h (0 Bft) W 0,00 h 0,000 mm 0,0 UV-I 0 W/m 10,6 C 1,5 km/h (1 Bft)
02.08.2016 00:00 11,9 C 11,9 C 90 % 1019,2 hPa 0,0 mm 0,8 km/h (0 Bft) W-SW 0,00 h 0,000 mm 0,0 UV-I 0 W/m 10,3 C 2,1 km/h (1 Bft)
02.08.2016 01:00 11,2 C 11,3 C 92 % 1018,9 hPa 0,0 mm 0,7 km/h (0 Bft) NW 0,00 h 0,000 mm 0,0 UV-I 0 W/m 9,9 C 1,7 km/h (1 Bft)
02.08.2016 02:00 10,9 C 10,9 C 92 % 1018,6 hPa 0,0 mm 0,4 km/h (0 Bft) W-NW 0,00 h 0,000 mm 0,0 UV-I 0 W/m 9,7 C 1,0 km/h (0 Bft)
02.08.2016 03:00 10,6 C 10,6 C 93 % 1018,5 hPa 0,0 mm 0,8 km/h (0 Bft) W-NW 0,00 h 0,000 mm 0,0 UV-I 0 W/m 9,4 C 2,0 km/h (1 Bft)
02.08.2016 04:00 11,2 C 11,2 C 91 % 1018,2 hPa 0,0 mm 0,4 km/h (0 Bft) N-NW 0,00 h 0,000 mm 0,0 UV-I 0 W/m 9,8 C 1,2 km/h (1 Bft)
02.08.2016 05:00 11,3 C 11,4 C 90 % 1018,3 hPa 0,0 mm 1,0 km/h (0 Bft) W 0,00 h 0,000 mm 0,0 UV-I 6 W/m 9,8 C 2,3 km/h (1 Bft)
02.08.2016 06:00 11,8 C 11,8 C 89 % 1018,3 hPa 0,0 mm 1,1 km/h (1 Bft) NW 0,30 h 0,000 mm 0,0 UV-I 47 W/m 10,1 C 2,5 km/h (1 Bft)
02.08.2016 07:00 13,6 C 13,6 C 86 % 1018,4 hPa 0,0 mm 0,5 km/h (0 Bft) N-NO 0,48 h 0,025 mm 0,6 UV-I 132 W/m 11,4 C 1,6 km/h (1 Bft)
02.08.2016 08:00 14,9 C 14,9 C 84 % 1018,5 hPa 0,0 mm 1,0 km/h (0 Bft) W-NW 0,17 h 0,077 mm 1,2 UV-I 193 W/m 12,2 C 2,2 km/h (1 Bft)
02.08.2016 09:00 16,6 C 16,6 C 80 % 1018,5 hPa 0,0 mm 1,0 km/h (0 Bft) W-SW 0,15 h 0,101 mm 1,8 UV-I 241 W/m 13,1 C 2,2 km/h (1 Bft)
02.08.2016 10:00 18,4 C 18,4 C 68 % 1018,4 hPa 0,0 mm 4,5 km/h (1 Bft) W 0,55 h 0,127 mm 3,2 UV-I 384 W/m 12,3 C 7,8 km/h (2 Bft)
02.08.2016 11:00 19,4 C 19,4 C 63 % 1018,1 hPa 0,0 mm 8,3 km/h (2 Bft) W-NW 0,98 h 0,229 mm 4,6 UV-I 549 W/m 12,3 C 13,5 km/h (3 Bft)
02.08.2016 12:00 20,4 C 20,4 C 62 % 1017,7 hPa 0,0 mm 7,1 km/h (2 Bft) W-NW 1,00 h 0,355 mm 5,8 UV-I 658 W/m 12,9 C 11,5 km/h (2 Bft)
02.08.2016 13:00 21,2 C 21,2 C 59 % 1017,4 hPa 0,0 mm 7,2 km/h (2 Bft) W-NW 0,95 h 0,407 mm 5,9 UV-I 699 W/m 12,8 C 11,6 km/h (2 Bft)
02.08.2016 14:00 21,3 C 21,4 C 59 % 1017,1 hPa 0,0 mm 8,1 km/h (2 Bft) W 0,55 h 0,432 mm 4,3 UV-I 481 W/m 12,9 C 13,0 km/h (3 Bft)
02.08.2016 15:00 21,0 C 21,0 C 61 % 1016,9 hPa 0,0 mm 8,0 km/h (2 Bft) W 0,10 h 0,330 mm 3,2 UV-I 366 W/m 13,2 C 13,1 km/h (3 Bft)
02.08.2016 16:00 20,9 C 20,9 C 62 % 1016,8 hPa 0,0 mm 8,2 km/h (2 Bft) W-SW 0,07 h 0,254 mm 2,5 UV-I 308 W/m 13,4 C 13,2 km/h (3 Bft)
02.08.2016 17:00 20,1 C 20,1 C 65 % 1016,8 hPa 0,0 mm 6,8 km/h (2 Bft) W 0,00 h 0,228 mm 1,3 UV-I 160 W/m 13,2 C 11,5 km/h (2 Bft)
02.08.2016 18:00 19,1 C 19,2 C 68 % 1017,0 hPa 0,0 mm 6,4 km/h (2 Bft) W 0,00 h 0,127 mm 0,6 UV-I 69 W/m 13,2 C 10,6 km/h (2 Bft)
02.08.2016 19:00 16,2 C 16,2 C 86 % 1017,6 hPa 1,0 mm 8,4 km/h (2 Bft) W 0,00 h 0,077 mm 0,0 UV-I 41 W/m 13,7 C 13,9 km/h (3 Bft)
02.08.2016 20:00 15,3 C 15,4 C 90 % 1017,7 hPa 0,4 mm 5,7 km/h (1 Bft) W-SW 0,00 h 0,050 mm 0,0 UV-I 11 W/m 13,6 C 10,1 km/h (2 Bft)
02.08.2016 21:00 15,0 C 15,0 C 91 % 1018,4 hPa 0,8 mm 4,1 km/h (1 Bft) W-SW 0,00 h 0,000 mm 0,0 UV-I 0 W/m 13,6 C 7,2 km/h (2 Bft)
02.08.2016 22:00 14,9 C 14,9 C 92 % 1018,8 hPa 0,6 mm 7,3 km/h (2 Bft) W-SW 0,00 h 0,000 mm 0,0 UV-I 0 W/m 13,6 C 12,1 km/h (2 Bft)
02.08.2016 23:00 14,5 C 14,5 C 93 % 1018,6 hPa 0,0 mm 2,6 km/h (1 Bft) S 0,00 h 0,000 mm 0,0 UV-I 0 W/m 13,4 C 4,7 km/h (1 Bft)
03.08.2016 00:00 14,1 C 14,1 C 95 % 1018,7 hPa 0,0 mm 0,9 km/h (0 Bft) SO 0,00 h 0,000 mm 0,0 UV-I 0 W/m 13,3 C 1,7 km/h (1 Bft)
03.08.2016 01:00 14,3 C 14,3 C 95 % 1018,8 hPa 0,0 mm 0,9 km/h (0 Bft) S 0,00 h 0,000 mm 0,0 UV-I 0 W/m 13,4 C 2,0 km/h (1 Bft)
03.08.2016 02:00 14,2 C 14,2 C 95 % 1018,5 hPa 0,0 mm 0,2 km/h (0 Bft) S-SW 0,00 h 0,000 mm 0,0 UV-I 0 W/m 13,4 C 0,6 km/h (0 Bft)
03.08.2016 03:00 14,0 C 14,0 C 95 % 1017,9 hPa 0,0 mm 0,2 km/h (0 Bft) S 0,00 h 0,000 mm 0,0 UV-I 0 W/m 13,3 C 0,6 km/h (0 Bft)
03.08.2016 04:00 13,7 C 13,8 C 95 % 1017,6 hPa 0,0 mm 0,0 km/h (0 Bft) N 0,00 h 0,000 mm 0,0 UV-I 0 W/m 13,0 C 0,0 km/h (0 Bft)
03.08.2016 05:00 13,2 C 13,2 C 96 % 1017,1 hPa 0,0 mm 0,4 km/h (0 Bft) W-NW 0,00 h 0,000 mm 0,0 UV-I 0 W/m 12,5 C 1,4 km/h (1 Bft)
03.08.2016 06:00 13,4 C 13,4 C 96 % 1017,1 hPa 0,0 mm 0,4 km/h (0 Bft) NW 0,03 h 0,000 mm 0,0 UV-I 23 W/m 12,7 C 1,2 km/h (1 Bft)
03.08.2016 07:00 14,6 C 14,6 C 94 % 1016,8 hPa 0,0 mm 0,4 km/h (0 Bft) N 0,67 h 0,000 mm 0,7 UV-I 138 W/m 13,6 C 1,1 km/h (1 Bft)
03.08.2016 08:00 16,8 C 16,8 C 89 % 1016,5 hPa 0,0 mm 1,2 km/h (1 Bft) S 0,98 h 0,076 mm 1,6 UV-I 286 W/m 15,0 C 2,4 km/h (1 Bft)
03.08.2016 09:00 19,6 C 19,6 C 77 % 1016,1 hPa 0,0 mm 2,8 km/h (1 Bft) W-SW 1,00 h 0,153 mm 3,2 UV-I 484 W/m 15,5 C 5,1 km/h (1 Bft)
03.08.2016 10:00 21,1 C 21,1 C 70 % 1015,5 hPa 0,0 mm 4,6 km/h (1 Bft) W-NW 1,00 h 0,279 mm 4,8 UV-I 651 W/m 15,4 C 7,7 km/h (2 Bft)
03.08.2016 11:00 21,9 C 22,0 C 68 % 1015,2 hPa 0,0 mm 4,5 km/h (1 Bft) W-NW 1,00 h 0,406 mm 5,9 UV-I 723 W/m 15,8 C 7,3 km/h (2 Bft)
03.08.2016 12:00 23,0 C 23,0 C 66 % 1014,7 hPa 0,0 mm 2,9 km/h (1 Bft) N-NO 1,00 h 0,458 mm 6,9 UV-I 817 W/m 16,2 C 4,8 km/h (1 Bft)
03.08.2016 13:00 24,1 C 24,2 C 62 % 1014,3 hPa 0,0 mm 5,5 km/h (1 Bft) W-NW 1,00 h 0,508 mm 7,2 UV-I 835 W/m 16,3 C 9,1 km/h (2 Bft)
03.08.2016 14:00 24,6 C 24,6 C 59 % 1014,0 hPa 0,0 mm 5,3 km/h (1 Bft) W-NW 1,00 h 0,533 mm 6,8 UV-I 800 W/m 16,1 C 8,4 km/h (2 Bft)
03.08.2016 15:00 25,0 C 25,0 C 56 % 1013,7 hPa 0,0 mm 4,9 km/h (1 Bft) W 1,00 h 0,533 mm 5,7 UV-I 715 W/m 15,5 C 8,3 km/h (2 Bft)
03.08.2016 16:00 24,7 C 24,8 C 50 % 1013,4 hPa 0,0 mm 7,7 km/h (2 Bft) W 0,27 h 0,483 mm 3,0 UV-I 348 W/m 13,4 C 12,7 km/h (3 Bft)
03.08.2016 17:00 24,2 C 24,2 C 51 % 1013,4 hPa 0,0 mm 6,9 km/h (2 Bft) W 0,00 h 0,254 mm 1,8 UV-I 208 W/m 13,4 C 11,3 km/h (2 Bft)
03.08.2016 18:00 23,1 C 23,1 C 56 % 1013,3 hPa 0,0 mm 5,5 km/h (1 Bft) W-NW 0,00 h 0,178 mm 1,0 UV-I 128 W/m 13,8 C 9,2 km/h (2 Bft)
03.08.2016 19:00 21,9 C 21,9 C 63 % 1013,4 hPa 0,0 mm 3,6 km/h (1 Bft) W-SW 0,07 h 0,127 mm 0,5 UV-I 69 W/m 14,4 C 6,3 km/h (2 Bft)
03.08.2016 20:00 20,7 C 20,7 C 67 % 1013,7 hPa 0,0 mm 1,4 km/h (1 Bft) S-SW 0,28 h 0,076 mm 0,0 UV-I 29 W/m 14,4 C 2,8 km/h (1 Bft)
03.08.2016 21:00 17,7 C 17,8 C 78 % 1014,1 hPa 0,0 mm 1,3 km/h (1 Bft) S 0,00 h 0,025 mm 0,0 UV-I 0 W/m 13,8 C 2,6 km/h (1 Bft)
03.08.2016 22:00 16,5 C 16,5 C 81 % 1014,1 hPa 0,0 mm 0,7 km/h (0 Bft) S 0,00 h 0,000 mm 0,0 UV-I 0 W/m 13,1 C 1,5 km/h (1 Bft)
03.08.2016 23:00 15,4 C 15,4 C 84 % 1014,0 hPa 0,0 mm 0,3 km/h (0 Bft) S 0,00 h 0,026 mm 0,0 UV-I 0 W/m 12,8 C 1,0 km/h (0 Bft)
04.08.2016 00:00 15,6 C 15,7 C 82 % 1013,9 hPa 0,0 mm 0,7 km/h (0 Bft) S 0,00 h 0,000 mm 0,0 UV-I 0 W/m 12,5 C 2,1 km/h (1 Bft)
04.08.2016 01:00 15,0 C 15,1 C 82 % 1013,8 hPa 0,0 mm 0,8 km/h (0 Bft) O-NO 0,00 h 0,025 mm 0,0 UV-I 0 W/m 11,9 C 2,0 km/h (1 Bft)
04.08.2016 02:00 14,1 C 14,1 C 84 % 1013,5 hPa 0,0 mm 0,3 km/h (0 Bft) W-NW 0,00 h 0,026 mm 0,0 UV-I 0 W/m 11,4 C 1,2 km/h (1 Bft)
04.08.2016 03:00 13,9 C 13,9 C 84 % 1013,3 hPa 0,0 mm 0,4 km/h (0 Bft) W-NW 0,00 h 0,025 mm 0,0 UV-I 0 W/m 11,3 C 1,1 km/h (1 Bft)
04.08.2016 04:00 14,1 C 14,2 C 84 % 1013,0 hPa 0,0 mm 0,1 km/h (0 Bft) W-NW 0,00 h 0,026 mm 0,0 UV-I 0 W/m 11,5 C 0,3 km/h (0 Bft)
04.08.2016 05:00 14,0 C 14,0 C 85 % 1012,9 hPa 0,0 mm 0,0 km/h (0 Bft) N 0,00 h 0,000 mm 0,0 UV-I 5 W/m 11,5 C 0,0 km/h (0 Bft)
04.08.2016 06:00 13,2 C 13,3 C 88 % 1012,7 hPa 0,0 mm 0,0 km/h (0 Bft) N 0,02 h 0,000 mm 0,0 UV-I 21 W/m 11,2 C 0,0 km/h (0 Bft)
04.08.2016 07:00 15,6 C 15,6 C 84 % 1012,8 hPa 0,0 mm 0,0 km/h (0 Bft) N 0,68 h 0,025 mm 0,8 UV-I 141 W/m 12,9 C 0,0 km/h (0 Bft)
04.08.2016 08:00 18,8 C 18,8 C 80 % 1012,8 hPa 0,0 mm 0,0 km/h (0 Bft) N 1,00 h 0,076 mm 1,8 UV-I 351 W/m 15,2 C 0,1 km/h (0 Bft)
04.08.2016 09:00 21,0 C 21,0 C 74 % 1012,6 hPa 0,0 mm 0,0 km/h (0 Bft) N 1,00 h 0,203 mm 3,0 UV-I 475 W/m 16,1 C 0,0 km/h (0 Bft)
04.08.2016 10:00 22,9 C 22,9 C 65 % 1012,3 hPa 0,0 mm 2,8 km/h (1 Bft) O 1,00 h 0,280 mm 4,7 UV-I 666 W/m 16,0 C 4,6 km/h (1 Bft)
04.08.2016 11:00 24,1 C 24,2 C 58 % 1012,1 hPa 0,0 mm 3,2 km/h (1 Bft) O 1,00 h 0,406 mm 6,0 UV-I 779 W/m 15,4 C 5,1 km/h (1 Bft)
04.08.2016 12:00 25,3 C 25,3 C 53 % 1011,7 hPa 0,0 mm 3,4 km/h (1 Bft) NW 1,00 h 0,508 mm 6,8 UV-I 837 W/m 15,0 C 5,3 km/h (1 Bft)
04.08.2016 13:00 25,4 C 25,4 C 55 % 1011,3 hPa 0,0 mm 3,0 km/h (1 Bft) O 0,72 h 0,559 mm 5,7 UV-I 713 W/m 15,5 C 5,0 km/h (1 Bft)
04.08.2016 14:00 26,4 C 26,4 C 51 % 1010,6 hPa 0,0 mm 4,7 km/h (1 Bft) O-NO 1,00 h 0,432 mm 6,5 UV-I 835 W/m 15,4 C 7,8 km/h (2 Bft)
04.08.2016 15:00 26,3 C 26,4 C 50 % 1010,0 hPa 0,0 mm 4,8 km/h (1 Bft) O-NO 0,85 h 0,559 mm 5,1 UV-I 658 W/m 15,1 C 8,2 km/h (2 Bft)
04.08.2016 16:00 25,8 C 25,8 C 52 % 1009,3 hPa 0,0 mm 5,6 km/h (1 Bft) O-NO 0,23 h 0,457 mm 2,6 UV-I 211 W/m 15,2 C 9,5 km/h (2 Bft)
04.08.2016 17:00 25,6 C 25,7 C 50 % 1008,4 hPa 0,0 mm 3,5 km/h (1 Bft) O-NO 0,00 h 0,152 mm 1,5 UV-I 51 W/m 14,3 C 6,4 km/h (2 Bft)
04.08.2016 18:00 24,7 C 24,8 C 49 % 1007,6 hPa 0,0 mm 2,5 km/h (1 Bft) SO 0,00 h 0,076 mm 0,9 UV-I 54 W/m 13,3 C 4,9 km/h (1 Bft)
04.08.2016 19:00 22,9 C 22,9 C 60 % 1007,0 hPa 0,0 mm 1,7 km/h (1 Bft) SO 0,00 h 0,077 mm 0,6 UV-I 62 W/m 14,5 C 3,5 km/h (1 Bft)
04.08.2016 20:00 21,9 C 21,9 C 62 % 1006,2 hPa 0,0 mm 2,7 km/h (1 Bft) O-SO 0,00 h 0,050 mm 0,0 UV-I 18 W/m 14,4 C 5,1 km/h (1 Bft)
04.08.2016 21:00 19,6 C 19,6 C 72 % 1006,4 hPa 0,0 mm 1,1 km/h (0 Bft) S-SO 0,00 h 0,026 mm 0,0 UV-I 0 W/m 14,3 C 2,1 km/h (1 Bft)
04.08.2016 22:00 17,7 C 17,7 C 81 % 1009,7 hPa 1,0 mm 13,7 km/h (3 Bft) W 0,00 h 0,025 mm 0,0 UV-I 0 W/m 14,3 C 21,1 km/h (4 Bft)
04.08.2016 23:00 15,1 C 15,2 C 88 % 1011,5 hPa 2,0 mm 7,4 km/h (2 Bft) W 0,00 h 0,051 mm 0,0 UV-I 0 W/m 13,2 C 11,9 km/h (2 Bft)
05.08.2016 00:00 14,5 C 14,6 C 93 % 1011,5 hPa 3,8 mm 1,5 km/h (1 Bft) S 0,00 h 0,000 mm 0,0 UV-I 0 W/m 13,5 C 3,0 km/h (1 Bft)
05.08.2016 01:00 14,1 C 14,1 C 93 % 1012,4 hPa 6,0 mm 8,9 km/h (2 Bft) W-SW 0,00 h 0,000 mm 0,0 UV-I 0 W/m 13,0 C 15,4 km/h (3 Bft)
05.08.2016 02:00 13,2 C 13,2 C 93 % 1012,3 hPa 2,4 mm 2,7 km/h (1 Bft) W-SW 0,00 h 0,000 mm 0,0 UV-I 0 W/m 12,1 C 5,0 km/h (1 Bft)
05.08.2016 03:00 13,0 C 13,0 C 95 % 1011,9 hPa 2,8 mm 0,8 km/h (0 Bft) S-SO 0,00 h 0,000 mm 0,0 UV-I 0 W/m 12,2 C 1,5 km/h (1 Bft)
05.08.2016 04:00 13,0 C 13,0 C 95 % 1010,9 hPa 2,8 mm 0,7 km/h (0 Bft) NO 0,00 h 0,000 mm 0,0 UV-I 0 W/m 12,2 C 1,3 km/h (1 Bft)
05.08.2016 05:00 13,0 C 13,0 C 95 % 1010,8 hPa 3,4 mm 0,8 km/h (0 Bft) N 0,00 h 0,000 mm 0,0 UV-I 0 W/m 12,3 C 1,5 km/h (1 Bft)
05.08.2016 06:00 12,9 C 12,9 C 96 % 1011,2 hPa 4,0 mm 0,4 km/h (0 Bft) W 0,00 h 0,000 mm 0,0 UV-I 5 W/m 12,3 C 0,7 km/h (0 Bft)
05.08.2016 07:00 12,8 C 12,8 C 96 % 1011,3 hPa 3,6 mm 0,0 km/h (0 Bft) N 0,00 h 0,000 mm 0,0 UV-I 10 W/m 12,2 C 0,0 km/h (0 Bft)
05.08.2016 08:00 13,0 C 13,1 C 96 % 1011,7 hPa 3,4 mm 0,0 km/h (0 Bft) N 0,00 h 0,000 mm 0,0 UV-I 29 W/m 12,4 C 0,1 km/h (0 Bft)
05.08.2016 09:00 12,8 C 12,8 C 95 % 1012,6 hPa 6,6 mm 4,0 km/h (1 Bft) W-NW 0,00 h 0,025 mm 0,0 UV-I 24 W/m 11,9 C 6,3 km/h (2 Bft)
05.08.2016 10:00 11,7 C 11,7 C 94 % 1014,2 hPa 5,2 mm 8,3 km/h (2 Bft) W-SW 0,00 h 0,026 mm 0,0 UV-I 28 W/m 10,8 C 13,6 km/h (3 Bft)
05.08.2016 11:00 11,3 C 11,3 C 94 % 1015,8 hPa 4,6 mm 8,6 km/h (2 Bft) W 0,00 h 0,025 mm 0,0 UV-I 39 W/m 10,3 C 13,6 km/h (3 Bft)
05.08.2016 12:00 11,4 C 11,4 C 94 % 1017,0 hPa 3,8 mm 5,5 km/h (1 Bft) W 0,00 h 0,026 mm 0,8 UV-I 78 W/m 10,5 C 9,1 km/h (2 Bft)
05.08.2016 13:00 11,6 C 11,7 C 94 % 1017,8 hPa 2,0 mm 5,7 km/h (1 Bft) W-SW 0,00 h 0,050 mm 0,9 UV-I 99 W/m 10,7 C 9,4 km/h (2 Bft)
05.08.2016 14:00 11,7 C 11,7 C 94 % 1018,9 hPa 2,0 mm 3,6 km/h (1 Bft) S 0,00 h 0,051 mm 0,8 UV-I 84 W/m 10,7 C 6,4 km/h (2 Bft)
05.08.2016 15:00 11,5 C 11,5 C 94 % 1019,6 hPa 1,6 mm 2,0 km/h (1 Bft) S 0,00 h 0,051 mm 0,9 UV-I 111 W/m 10,5 C 3,8 km/h (1 Bft)
05.08.2016 16:00 11,5 C 11,5 C 94 % 1019,8 hPa 0,4 mm 1,4 km/h (1 Bft) W 0,00 h 0,051 mm 1,0 UV-I 134 W/m 10,5 C 3,2 km/h (1 Bft)
05.08.2016 17:00 11,6 C 11,7 C 93 % 1019,8 hPa 0,0 mm 1,7 km/h (1 Bft) NW 0,00 h 0,076 mm 1,0 UV-I 130 W/m 10,5 C 3,5 km/h (1 Bft)
05.08.2016 18:00 10,9 C 11,0 C 93 % 1020,2 hPa 0,6 mm 1,8 km/h (1 Bft) NO 0,00 h 0,076 mm 0,5 UV-I 54 W/m 9,8 C 3,5 km/h (1 Bft)
05.08.2016 19:00 10,3 C 10,3 C 94 % 1020,7 hPa 0,0 mm 1,8 km/h (1 Bft) N 0,00 h 0,025 mm 0,0 UV-I 23 W/m 9,4 C 3,7 km/h (1 Bft)
05.08.2016 20:00 10,1 C 10,1 C 94 % 1021,6 hPa 0,0 mm 0,8 km/h (0 Bft) W-SW 0,00 h 0,000 mm 0,0 UV-I 5 W/m 9,2 C 2,5 km/h (1 Bft)
05.08.2016 21:00 10,4 C 10,4 C 94 % 1022,6 hPa 1,8 mm 2,4 km/h (1 Bft) W-SW 0,00 h 0,000 mm 0,0 UV-I 0 W/m 9,5 C 4,3 km/h (1 Bft)
05.08.2016 22:00 10,4 C 10,4 C 95 % 1023,0 hPa 0,4 mm 1,3 km/h (1 Bft) W-SW 0,00 h 0,000 mm 0,0 UV-I 0 W/m 9,7 C 2,6 km/h (1 Bft)
05.08.2016 23:00 10,1 C 10,1 C 95 % 1023,1 hPa 0,0 mm 1,4 km/h (1 Bft) SW 0,00 h 0,000 mm 0,0 UV-I 0 W/m 9,3 C 2,7 km/h (1 Bft)
06.08.2016 00:00 10,1 C 10,2 C 95 % 1023,3 hPa 0,0 mm 1,8 km/h (1 Bft) W-SW 0,00 h 0,000 mm 0,0 UV-I 0 W/m 9,4 C 3,5 km/h (1 Bft)
06.08.2016 01:00 10,2 C 10,2 C 95 % 1023,7 hPa 0,0 mm 2,2 km/h (1 Bft) W 0,00 h 0,000 mm 0,0 UV-I 0 W/m 9,4 C 3,7 km/h (1 Bft)
06.08.2016 02:00 10,4 C 10,4 C 95 % 1023,9 hPa 0,0 mm 1,9 km/h (1 Bft) S-SW 0,00 h 0,000 mm 0,0 UV-I 0 W/m 9,6 C 3,7 km/h (1 Bft)
06.08.2016 03:00 10,4 C 10,4 C 95 % 1024,1 hPa 0,0 mm 2,0 km/h (1 Bft) S 0,00 h 0,000 mm 0,0 UV-I 0 W/m 9,6 C 3,7 km/h (1 Bft)
06.08.2016 04:00 11,3 C 11,3 C 92 % 1024,3 hPa 0,0 mm 4,1 km/h (1 Bft) S 0,00 h 0,000 mm 0,0 UV-I 0 W/m 10,0 C 7,0 km/h (2 Bft)
06.08.2016 05:00 11,5 C 11,6 C 92 % 1024,5 hPa 0,0 mm 3,3 km/h (1 Bft) S 0,00 h 0,000 mm 0,0 UV-I 0 W/m 10,3 C 5,6 km/h (1 Bft)
06.08.2016 06:00 11,4 C 11,4 C 93 % 1024,8 hPa 0,0 mm 1,7 km/h (1 Bft) S 0,00 h 0,000 mm 0,0 UV-I 16 W/m 10,4 C 3,3 km/h (1 Bft)
06.08.2016 07:00 11,1 C 11,2 C 95 % 1025,1 hPa 0,0 mm 0,9 km/h (0 Bft) S 0,13 h 0,000 mm 0,7 UV-I 80 W/m 10,3 C 2,1 km/h (1 Bft)
06.08.2016 08:00 13,1 C 13,1 C 91 % 1025,4 hPa 0,0 mm 2,4 km/h (1 Bft) W-SW 0,03 h 0,051 mm 1,1 UV-I 144 W/m 11,6 C 4,8 km/h (1 Bft)
06.08.2016 09:00 15,3 C 15,3 C 85 % 1025,7 hPa 0,0 mm 5,7 km/h (1 Bft) W-SW 0,97 h 0,076 mm 2,9 UV-I 533 W/m 12,8 C 9,6 km/h (2 Bft)
06.08.2016 10:00 16,3 C 16,4 C 80 % 1025,9 hPa 0,0 mm 5,8 km/h (2 Bft) W 0,77 h 0,279 mm 4,2 UV-I 599 W/m 12,8 C 9,0 km/h (2 Bft)
06.08.2016 11:00 16,6 C 16,7 C 74 % 1026,0 hPa 0,0 mm 4,9 km/h (1 Bft) W-NW 0,47 h 0,330 mm 3,5 UV-I 475 W/m 11,9 C 7,9 km/h (2 Bft)
06.08.2016 12:00 15,7 C 15,7 C 81 % 1026,4 hPa 0,0 mm 3,8 km/h (1 Bft) W-SW 0,00 h 0,255 mm 1,9 UV-I 193 W/m 12,3 C 6,1 km/h (2 Bft)
06.08.2016 13:00 16,0 C 16,0 C 77 % 1026,5 hPa 0,0 mm 2,4 km/h (1 Bft) W-SW 0,10 h 0,101 mm 1,9 UV-I 210 W/m 11,8 C 4,1 km/h (1 Bft)
06.08.2016 14:00 15,2 C 15,2 C 83 % 1026,7 hPa 0,0 mm 1,6 km/h (1 Bft) O-NO 0,00 h 0,127 mm 1,4 UV-I 137 W/m 12,3 C 2,8 km/h (1 Bft)
06.08.2016 15:00 16,8 C 16,8 C 77 % 1026,6 hPa 0,0 mm 1,9 km/h (1 Bft) O-NO 0,25 h 0,076 mm 3,6 UV-I 399 W/m 12,7 C 3,4 km/h (1 Bft)
06.08.2016 16:00 18,1 C 18,1 C 69 % 1026,1 hPa 0,0 mm 2,8 km/h (1 Bft) W 0,20 h 0,229 mm 2,7 UV-I 338 W/m 12,3 C 5,3 km/h (1 Bft)
06.08.2016 17:00 16,2 C 16,3 C 76 % 1026,3 hPa 0,2 mm 1,7 km/h (1 Bft) NO 0,00 h 0,203 mm 0,7 UV-I 50 W/m 12,0 C 3,2 km/h (1 Bft)
06.08.2016 18:00 15,0 C 15,0 C 84 % 1026,6 hPa 0,0 mm 0,4 km/h (0 Bft) O 0,00 h 0,026 mm 0,0 UV-I 17 W/m 12,3 C 1,0 km/h (0 Bft)
06.08.2016 19:00 14,5 C 14,5 C 88 % 1026,7 hPa 0,0 mm 0,1 km/h (0 Bft) O 0,00 h 0,025 mm 0,0 UV-I 31 W/m 12,5 C 0,2 km/h (0 Bft)
06.08.2016 20:00 14,0 C 14,1 C 89 % 1027,2 hPa 0,0 mm 0,0 km/h (0 Bft) N 0,00 h 0,025 mm 0,0 UV-I 7 W/m 12,2 C 0,0 km/h (0 Bft)
06.08.2016 21:00 13,7 C 13,7 C 90 % 1027,8 hPa 0,0 mm 0,9 km/h (0 Bft) O-NO 0,00 h 0,000 mm 0,0 UV-I 0 W/m 12,1 C 1,6 km/h (1 Bft)
06.08.2016 22:00 13,2 C 13,3 C 92 % 1028,2 hPa 0,0 mm 0,5 km/h (0 Bft) W-SW 0,00 h 0,000 mm 0,0 UV-I 0 W/m 12,0 C 1,3 km/h (1 Bft)
06.08.2016 23:00 13,1 C 13,1 C 91 % 1028,3 hPa 0,2 mm 0,9 km/h (0 Bft) S 0,00 h 0,000 mm 0,0 UV-I 0 W/m 11,8 C 2,2 km/h (1 Bft)
07.08.2016 00:00 12,7 C 12,7 C 93 % 1028,3 hPa 0,0 mm 0,2 km/h (0 Bft) SO 0,00 h 0,000 mm 0,0 UV-I 0 W/m 11,6 C 0,5 km/h (0 Bft)
07.08.2016 01:00 11,8 C 11,8 C 93 % 1028,4 hPa 0,0 mm 0,2 km/h (0 Bft) W-NW 0,00 h 0,000 mm 0,0 UV-I 0 W/m 10,7 C 0,4 km/h (0 Bft)
07.08.2016 02:00 11,2 C 11,2 C 95 % 1028,2 hPa 0,0 mm 0,1 km/h (0 Bft) N 0,00 h 0,000 mm 0,0 UV-I 0 W/m 10,4 C 0,6 km/h (0 Bft)
07.08.2016 03:00 10,7 C 10,7 C 96 % 1028,0 hPa 0,0 mm 0,0 km/h (0 Bft) N 0,00 h 0,000 mm 0,0 UV-I 0 W/m 10,0 C 0,0 km/h (0 Bft)
07.08.2016 04:00 9,9 C 9,9 C 96 % 1027,8 hPa 0,0 mm 0,0 km/h (0 Bft) W 0,00 h 0,000 mm 0,0 UV-I 0 W/m 9,3 C 0,1 km/h (0 Bft)
07.08.2016 05:00 9,8 C 9,8 C 96 % 1027,7 hPa 0,0 mm 0,0 km/h (0 Bft) N 0,00 h 0,000 mm 0,0 UV-I 0 W/m 9,2 C 0,2 km/h (0 Bft)
07.08.2016 06:00 9,4 C 9,5 C 96 % 1028,1 hPa 0,0 mm 0,0 km/h (0 Bft) N 0,00 h 0,000 mm 0,0 UV-I 19 W/m 8,9 C 0,0 km/h (0 Bft)
07.08.2016 07:00 10,7 C 10,8 C 95 % 1028,5 hPa 0,0 mm 0,0 km/h (0 Bft) N 0,45 h 0,000 mm 0,8 UV-I 117 W/m 10,0 C 0,0 km/h (0 Bft)
07.08.2016 08:00 13,8 C 13,8 C 91 % 1028,7 hPa 0,0 mm 0,3 km/h (0 Bft) N 1,00 h 0,051 mm 1,5 UV-I 300 W/m 12,3 C 0,5 km/h (0 Bft)
07.08.2016 09:00 16,2 C 16,2 C 83 % 1028,6 hPa 0,0 mm 3,0 km/h (1 Bft) NO 0,93 h 0,152 mm 2,8 UV-I 477 W/m 13,2 C 4,7 km/h (1 Bft)
07.08.2016 10:00 17,3 C 17,3 C 77 % 1028,4 hPa 0,0 mm 5,1 km/h (1 Bft) N-NO 0,92 h 0,254 mm 4,3 UV-I 623 W/m 13,1 C 8,3 km/h (2 Bft)
07.08.2016 11:00 18,5 C 18,5 C 69 % 1028,2 hPa 0,0 mm 5,3 km/h (1 Bft) O-NO 1,00 h 0,356 mm 5,8 UV-I 783 W/m 12,7 C 8,3 km/h (2 Bft)
07.08.2016 12:00 19,2 C 19,2 C 65 % 1027,9 hPa 0,0 mm 4,4 km/h (1 Bft) NO 0,85 h 0,457 mm 6,4 UV-I 765 W/m 12,3 C 7,5 km/h (2 Bft)
07.08.2016 13:00 20,1 C 20,1 C 62 % 1027,4 hPa 0,0 mm 5,2 km/h (1 Bft) O-NO 0,90 h 0,457 mm 6,8 UV-I 846 W/m 12,7 C 8,4 km/h (2 Bft)
07.08.2016 14:00 20,9 C 20,9 C 60 % 1026,9 hPa 0,0 mm 5,0 km/h (1 Bft) O-NO 1,00 h 0,508 mm 6,6 UV-I 878 W/m 12,9 C 8,1 km/h (2 Bft)
07.08.2016 15:00 21,2 C 21,3 C 57 % 1026,4 hPa 0,0 mm 5,6 km/h (1 Bft) N-NO 1,00 h 0,534 mm 5,4 UV-I 745 W/m 12,3 C 9,1 km/h (2 Bft)
07.08.2016 16:00 21,1 C 21,1 C 57 % 1025,9 hPa 0,0 mm 5,1 km/h (1 Bft) N-NO 0,28 h 0,482 mm 4,2 UV-I 208 W/m 12,3 C 8,5 km/h (2 Bft)
07.08.2016 17:00 21,1 C 21,2 C 57 % 1025,5 hPa 0,0 mm 4,6 km/h (1 Bft) NO 0,00 h 0,153 mm 0,0 UV-I 40 W/m 12,3 C 7,6 km/h (2 Bft)
07.08.2016 18:00 20,8 C 20,8 C 58 % 1024,9 hPa 0,0 mm 3,7 km/h (1 Bft) O-NO 0,00 h 0,050 mm 0,8 UV-I 37 W/m 12,3 C 6,3 km/h (2 Bft)
07.08.2016 19:00 19,9 C 19,9 C 61 % 1024,6 hPa 0,0 mm 3,0 km/h (1 Bft) NO 0,00 h 0,051 mm 0,6 UV-I 48 W/m 12,0 C 5,1 km/h (1 Bft)
07.08.2016 20:00 16,8 C 16,8 C 73 % 1024,7 hPa 0,0 mm 0,7 km/h (0 Bft) O-SO 0,00 h 0,051 mm 0,0 UV-I 14 W/m 11,9 C 1,4 km/h (1 Bft)
07.08.2016 21:00 14,0 C 14,0 C 84 % 1024,8 hPa 0,0 mm 2,3 km/h (1 Bft) S 0,00 h 0,025 mm 0,0 UV-I 0 W/m 11,3 C 3,9 km/h (1 Bft)
07.08.2016 22:00 13,0 C 13,1 C 88 % 1024,7 hPa 0,0 mm 0,0 km/h (0 Bft) N 0,00 h 0,000 mm 0,0 UV-I 0 W/m 11,0 C 0,2 km/h (0 Bft)
07.08.2016 23:00 12,4 C 12,4 C 90 % 1024,4 hPa 0,0 mm 0,1 km/h (0 Bft) S 0,00 h 0,000 mm 0,0 UV-I 0 W/m 10,8 C 0,3 km/h (0 Bft)
Min-Datum _ 07.08.16 07.08.16 04.08.16 04.08.16 - 07.08.16 - - - - - 07.08.16 07.08.16
_ Min-Zeit 06:00 06:00 18:01 20:48 - 23:00 - - - - - 06:00 23:00
Minimum _ 9,2 C 9,2 C 43 % 1005,8 hPa - 0,0 km/h (0 Bft) - - - - - 8,6 C 0,0 km/h (0 Bft)
Max-Datum _ 04.08.16 04.08.16 07.08.16 07.08.16 05.08.16 05.08.16 - 01.08.16 04.08.16 02.08.16 06.08.16 04.08.16 05.08.16
_ Max-Zeit 14:50 14:50 07:24 08:27 09:31 10:56 - 11:09 15:00 13:25 13:09 13:41 01:37
Maximum _ 26,9 C 26,9 C 97 % 1028,8 hPa 6,6 mm 20,0 km/h
W-SW (4 Bft)
- 0,03 h 0,559 mm 8,3 UV-I 1167 W/m 18,1 C 30,6 km/h
W-SW (5 Bft)
Durchschnitt _ 15,9 C 15,9 C 81 % 1018,8 hPa #67,4 mm 2,6 km/h (1 Bft) W #36:34 h #18,921 mm 2,9 UV-I 178 W/m 12,3 C 4,6 km/h (1 Bft)